Pagrindinis puslapis
METAR-TAF:

METAR-TAF

Oro uostai :

Princesės Julianos tarptautinis oro uostas

Sint Martenas, Nyderlandų Antilai

platuma: 18-03N, ilguma: 063-07W, Aukštis: 4 m

Dabartinis oras

Ataskaita buvo paskelbta 59 minutes, ne 00:00 UTC
Vėjas 7 kt iš Rytų, svyruoja nuo Šiaurės Rytų ir Rytų/Pietryčių
Temperatūra 29°C
Drėgmė 74%
Slėgis 1011 hPa
Matomumas 10 km arba daugiau
Mažai debesys ne aukštis 2000 ft

METAR: TNCM 200000Z 08007KT 050V110 9999 FEW020 29/24 Q1011 NOSIG

Laikas: 20:59 (00:59 UTC)

Prognozė

Ataskaita buvo paskelbta 1 valandą ir 39 minutes, ne 23:20 UTC
Prognozė galioja nuo 20 metu 00 UTC su 20 metu 24 UTC
Vėjas 10 kt iš Rytų
Matomumas: 10 km
Išsisklaidę debesys ne aukštis 2000 ft

TAF: TNCM 192320Z 2000/2024 08010KT P6SM SCT020

Orai ataskaitas ir orų prognozės (METAR, TAF).

turimą stotys yra geltonos ir raudonos taškus žemėlapyje.

Perkelti pele per norėdami pamatyti stoties vardą.

Tada spustelėkite, norėdami matyti oro stebėjimo ir prognozės.

Norėdami pakeisti žemėlapį: spustelėkite ant žalios mygtukų su juodo kryžiaus žemyn,; žalią mygtuką su brūkšneliu, jei norite nutolinti; arba žalių rodyklių gretimoms žemėlapius.


METAR-TAF: